Time;durP1;ratioP1;P1;durP2;ratioP2;P2;SDS_P1;SDS_P2;PMS_P1;PMS_P2;Temp;Humidity;BMP_temperature;BMP_pressure;BME280_temperature;BME280_humidity;BME280_pressure;Samples;Min_cycle;Max_cycle;Signal;HPM_P1;HPM_P2
2023/04/05 05:01:07;;;;;;;;;9.33;9.33;;;;;9.56;45.71;67992.22;5637371;23;46483;-76
2023/04/05 05:03:37;;;;;;;;;11.33;9.00;;;;;9.23;45.96;67877.91;4937723;28;45403;-77
2023/04/05 05:06:03;;;;;;;;;7.67;7.67;;;;;9.50;45.83;67940.84;4936906;28;45651;-77
2023/04/05 05:08:29;;;;;;;;;9.00;9.00;;;;;9.46;46.10;67909.75;4937472;28;45656;-76
2023/04/05 05:10:54;;;;;;;;;12.00;10.00;;;;;9.33;46.11;68160.88;4936988;28;45342;-80
2023/04/05 05:13:20;;;;;;;;;10.33;10.33;;;;;9.19;46.11;67984.56;4929591;28;45500;-83
2023/04/05 05:15:45;;;;;;;;;11.00;8.00;;;;;9.38;46.16;67942.50;4930019;28;46550;-82
2023/04/05 05:18:11;;;;;;;;;12.00;10.00;;;;;9.43;46.50;67940.50;4936693;28;45688;-81
2023/04/05 05:20:36;;;;;;;;;11.00;11.00;;;;;9.35;46.33;67941.63;4935223;28;45425;-78
2023/04/05 05:23:04;;;;;;;;;10.33;10.33;;;;;9.41;46.13;67919.66;4936313;28;45474;-79
2023/04/05 05:25:29;;;;;;;;;9.67;8.67;;;;;9.03;46.42;67854.91;4933181;28;46475;-80
2023/04/05 05:27:55;;;;;;;;;12.33;9.67;;;;;9.34;46.48;67912.00;4935045;28;45439;-81
2023/04/05 05:30:20;;;;;;;;;15.67;12.00;;;;;9.39;46.48;67931.09;4931956;28;45568;-79
2023/04/05 05:32:46;;;;;;;;;13.33;11.67;;;;;9.40;46.46;67950.16;4938545;28;45444;-82
2023/04/05 05:35:11;;;;;;;;;11.33;11.33;;;;;9.36;46.61;67948.66;4938089;28;45370;-80
2023/04/05 05:37:37;;;;;;;;;13.00;11.33;;;;;9.16;46.40;67930.91;4932698;28;45515;-79
2023/04/05 05:40:06;;;;;;;;;15.00;13.67;;;;;9.35;46.93;67931.66;4935611;28;45573;-77
2023/04/05 05:42:32;;;;;;;;;14.00;11.00;;;;;9.24;47.12;67924.50;4933114;28;45635;-82
2023/04/05 05:45:02;;;;;;;;;14.00;13.67;;;;;9.32;47.38;67914.91;4933233;28;45533;-81
2023/04/05 05:47:27;;;;;;;;;16.00;15.00;;;;;9.30;46.93;67965.31;4936891;28;45476;-83
2023/04/05 05:49:52;;;;;;;;;13.00;12.00;;;;;9.18;46.89;67916.84;4936620;28;45868;-82
2023/04/05 05:52:18;;;;;;;;;13.00;13.00;;;;;9.27;47.41;67959.72;4938375;28;45491;-82
2023/04/05 05:54:43;;;;;;;;;11.00;10.67;;;;;9.28;47.52;67912.84;4933165;28;46062;-82
2023/04/05 05:57:09;;;;;;;;;10.67;10.67;;;;;9.28;46.98;67912.84;4927604;28;45401;-83
2023/04/05 05:59:34;;;;;;;;;15.33;11.00;;;;;8.95;47.18;67837.56;4938207;28;45389;-82
2023/04/05 06:02:00;;;;;;;;;16.00;16.00;;;;;9.22;47.48;67911.59;4937984;28;45349;-81
2023/04/05 06:04:26;;;;;;;;;16.00;14.67;;;;;9.28;47.65;67897.59;4934688;28;46000;-81
2023/04/05 06:06:51;;;;;;;;;16.33;15.33;;;;;9.25;47.48;67909.88;4923812;28;46263;-82
2023/04/05 06:09:16;;;;;;;;;15.00;12.00;;;;;9.08;47.79;67866.69;4933647;28;45385;-82
2023/04/05 06:11:42;;;;;;;;;18.67;12.67;;;;;9.20;47.17;67903.38;4935024;28;45489;-83
2023/04/05 06:14:08;;;;;;;;;13.33;13.33;;;;;9.36;47.68;67874.19;4938780;28;46172;-82
2023/04/05 06:16:34;;;;;;;;;14.33;13.33;;;;;9.08;47.81;67887.16;4940984;28;45427;-88
2023/04/05 06:19:00;;;;;;;;;28.00;24.50;;;;;9.33;47.23;67883.84;4941498;28;45404;-80
2023/04/05 06:21:26;;;;;;;;;17.33;15.67;;;;;9.39;47.23;67917.91;4941278;28;45361;-83
2023/04/05 06:23:51;;;;;;;;;15.00;13.33;;;;;9.18;47.33;67903.66;4940960;28;46082;-83
2023/04/05 06:26:23;;;;;;;;;15.67;14.00;;;;;9.42;47.42;67921.44;4940559;28;47082;-80
2023/04/05 06:28:49;;;;;;;;;16.00;14.67;;;;;9.25;47.77;67909.28;4926985;28;45545;-81
2023/04/05 06:31:16;;;;;;;;;19.67;16.33;;;;;9.20;47.52;67877.59;4941374;28;45425;-81
2023/04/05 06:33:42;;;;;;;;;16.00;16.00;;;;;9.48;47.75;67873.13;4940908;28;46414;-80
2023/04/05 06:36:08;;;;;;;;;18.67;14.67;;;;;9.29;47.96;67885.59;4940748;28;45504;-82
2023/04/05 06:38:33;;;;;;;;;14.33;14.33;;;;;9.45;47.96;67951.38;4940912;28;45706;-81
2023/04/05 06:40:59;;;;;;;;;15.33;15.33;;;;;9.26;47.93;67921.59;4940804;28;45428;-80
2023/04/05 06:43:24;;;;;;;;;15.33;15.00;;;;;9.40;47.31;67905.31;4940621;28;46049;-81
2023/04/05 06:45:50;;;;;;;;;18.00;17.67;;;;;9.29;47.54;67858.59;4940770;28;45886;-81
2023/04/05 06:48:15;;;;;;;;;19.00;13.00;;;;;9.55;47.40;67915.06;4940731;28;45390;-81
2023/04/05 06:50:41;;;;;;;;;19.67;17.00;;;;;9.49;47.39;67892.19;4941084;28;45436;-82
2023/04/05 06:53:06;;;;;;;;;19.33;16.33;;;;;9.50;47.70;67898.63;4938572;28;58638;-82
2023/04/05 06:55:32;;;;;;;;;15.00;13.33;;;;;9.57;47.66;67877.84;4934591;28;46455;-82
2023/04/05 06:57:57;;;;;;;;;18.00;16.00;;;;;9.43;47.79;67888.31;4938383;28;45342;-83
2023/04/05 07:00:23;;;;;;;;;14.33;13.00;;;;;9.55;47.56;67864.94;4941503;28;45346;-83
2023/04/05 07:02:48;;;;;;;;;21.33;19.00;;;;;9.65;47.62;67871.47;4940975;28;45443;-83
2023/04/05 07:05:14;;;;;;;;;18.00;17.00;;;;;9.65;47.57;67862.97;4941275;28;45398;-82
2023/04/05 07:07:42;;;;;;;;;16.33;14.33;;;;;9.64;47.81;67861.78;4941069;28;45390;-83
2023/04/05 07:10:08;;;;;;;;;20.00;18.33;;;;;9.51;47.25;67873.44;4941070;28;45503;-83
2023/04/05 07:12:33;;;;;;;;;13.33;12.00;;;;;9.57;47.90;67896.31;4940756;28;46191;-83
2023/04/05 07:14:59;;;;;;;;;15.33;15.33;;;;;9.74;48.15;67915.81;4941077;28;45331;-83
2023/04/05 07:17:24;;;;;;;;;12.00;10.33;;;;;9.81;47.89;67942.56;4941431;28;45421;-82
2023/04/05 07:19:50;;;;;;;;;17.00;16.00;;;;;9.48;47.21;67877.78;4941286;28;45335;-83
2023/04/05 07:22:15;;;;;;;;;14.67;14.67;;;;;9.89;47.67;67938.78;4955556;28;48047;-84
2023/04/05 07:24:41;;;;;;;;;15.33;12.33;;;;;9.72;47.71;67863.88;4940312;28;45409;-83
2023/04/05 07:27:06;;;;;;;;;18.67;15.67;;;;;9.97;47.38;67921.22;4939994;28;45393;-83
2023/04/05 07:29:33;;;;;;;;;18.67;16.33;;;;;9.90;47.64;67905.06;4941027;28;45420;-83
2023/04/05 07:31:59;;;;;;;;;21.33;16.00;;;;;10.03;47.71;67946.22;4940548;28;46254;-83
2023/04/05 07:34:26;;;;;;;;;15.33;13.67;;;;;9.79;47.05;67934.91;4940544;28;45487;-82
2023/04/05 07:36:51;;;;;;;;;13.00;12.00;;;;;9.88;47.15;68014.19;4940934;28;45372;-83
2023/04/05 07:39:17;;;;;;;;;18.00;14.33;;;;;9.98;47.28;67908.63;4940531;28;45549;-83
2023/04/05 07:41:42;;;;;;;;;18.00;14.00;;;;;10.18;47.26;67955.41;4940553;28;45349;-83
2023/04/05 07:44:08;;;;;;;;;19.67;17.00;;;;;9.94;47.04;67910.34;4940207;28;45409;-84
2023/04/05 07:46:33;;;;;;;;;16.67;16.33;;;;;9.45;47.17;67834.69;4940627;28;45864;-83
2023/04/05 07:48:59;;;;;;;;;19.00;17.00;;;;;10.24;46.93;67936.66;4940874;28;45377;-83
2023/04/05 07:51:26;;;;;;;;;14.67;13.33;;;;;10.38;46.59;67910.34;4940288;28;47028;-83
2023/04/05 07:53:51;;;;;;;;;17.67;13.67;;;;;10.45;46.43;67952.38;4939875;28;45437;-83
2023/04/05 07:56:16;;;;;;;;;16.00;14.67;;;;;10.13;46.55;67942.75;4940433;28;45381;-83
2023/04/05 07:58:42;;;;;;;;;13.00;11.00;;;;;10.42;46.36;67975.84;4940973;28;45464;-83
2023/04/05 08:01:09;;;;;;;;;12.33;11.00;;;;;10.66;46.24;67966.59;4939856;28;46153;-83
2023/04/05 08:03:40;;;;;;;;;17.67;16.67;;;;;10.61;46.28;68113.44;4940194;28;45378;-84
2023/04/05 08:06:17;;;;;;;;;18.00;16.00;;;;;10.56;46.56;68008.25;4939957;28;45438;-84
2023/04/05 08:08:44;;;;;;;;;17.33;14.00;;;;;10.89;46.49;68013.72;4940014;28;45489;-84
2023/04/05 08:11:10;;;;;;;;;14.67;12.67;;;;;10.91;45.91;68090.13;4939926;28;46362;-83
2023/04/05 08:13:37;;;;;;;;;17.67;16.00;;;;;11.00;46.12;68076.97;4939869;28;45575;-83
2023/04/05 08:16:03;;;;;;;;;20.67;17.33;;;;;10.81;46.17;67949.31;4939961;28;45314;-84
2023/04/05 08:18:28;;;;;;;;;13.67;13.00;;;;;11.08;46.06;68038.22;4940080;28;45283;-83
2023/04/05 08:20:55;;;;;;;;;15.67;13.00;;;;;11.12;45.83;68038.25;4940089;28;46981;-83
2023/04/05 08:23:20;;;;;;;;;11.67;11.67;;;;;11.11;45.62;68055.56;4939505;28;45295;-84
2023/04/05 08:25:46;;;;;;;;;14.67;14.67;;;;;10.99;45.80;68165.72;4939967;28;45362;-84
2023/04/05 08:28:13;;;;;;;;;16.67;15.33;;;;;11.11;45.26;68010.59;4940504;28;45175;-84
2023/04/05 08:30:39;;;;;;;;;18.00;13.00;;;;;10.97;45.35;68012.56;4939703;28;45358;-84
2023/04/05 08:33:04;;;;;;;;;17.00;14.67;;;;;11.34;45.44;68076.88;4939835;28;45512;-84
2023/04/05 08:35:30;;;;;;;;;14.00;13.00;;;;;11.41;45.51;68079.25;4939890;28;45405;-84
2023/04/05 08:37:55;;;;;;;;;13.33;11.00;;;;;11.41;45.03;68074.53;4939840;28;45378;-84
2023/04/05 08:40:29;;;;;;;;;15.33;13.33;;;;;11.56;44.68;68086.38;4939400;28;46366;-83
2023/04/05 08:43:07;;;;;;;;;16.00;13.00;;;;;11.53;44.37;68084.91;4939756;28;45457;-83
2023/04/05 08:45:35;;;;;;;;;15.33;12.00;;;;;11.36;44.32;68113.06;4939791;28;45526;-84
2023/04/05 08:48:01;;;;;;;;;22.00;18.67;;;;;11.70;44.02;68133.53;4939792;28;45343;-84
2023/04/05 08:50:26;;;;;;;;;14.67;13.00;;;;;11.73;43.95;68243.00;4939196;28;47003;-84
2023/04/05 08:52:52;;;;;;;;;12.67;12.67;;;;;11.62;43.93;68082.88;4939244;28;45409;-84
2023/04/05 08:55:17;;;;;;;;;12.00;12.00;;;;;11.50;44.14;68084.59;4938139;28;45497;-84
2023/04/05 08:57:50;;;;;;;;;16.00;16.00;;;;;11.79;43.79;68086.47;4939647;28;46112;-84
2023/04/05 09:00:16;;;;;;;;;13.00;9.67;;;;;12.09;43.71;68126.06;4939168;28;45561;-83
2023/04/05 09:02:47;;;;;;;;;18.00;13.00;;;;;12.20;43.80;68168.25;4939369;28;45423;-84
2023/04/05 09:05:14;;;;;;;;;14.67;12.00;;;;;12.29;43.69;68148.53;4939011;28;45474;-84
2023/04/05 09:07:41;;;;;;;;;10.67;10.67;;;;;11.90;43.71;68069.19;4939443;28;45516;-84
2023/04/05 09:10:12;;;;;;;;;17.00;16.00;;;;;11.94;43.49;68085.09;4939039;28;46552;-83
2023/04/05 09:12:40;;;;;;;;;14.33;14.00;;;;;12.28;43.33;68089.63;4939358;28;45505;-83
2023/04/05 09:15:06;;;;;;;;;15.00;12.00;;;;;12.59;43.17;68184.00;4939396;28;45342;-84
2023/04/05 09:17:33;;;;;;;;;13.33;12.33;;;;;12.62;43.14;68187.56;4939311;28;45307;-84
2023/04/05 09:19:58;;;;;;;;;14.33;10.67;;;;;12.45;42.83;68178.06;4938529;28;47061;-84
2023/04/05 09:22:23;;;;;;;;;14.00;13.67;;;;;12.55;42.47;68213.75;4939194;28;45390;-84
2023/04/05 09:24:48;;;;;;;;;14.67;12.67;;;;;12.79;42.41;68209.13;4939344;28;45419;-84
2023/04/05 09:27:16;;;;;;;;;15.00;12.33;;;;;13.02;42.72;68217.16;4939483;28;45329;-84
2023/04/05 09:29:43;;;;;;;;;11.33;10.00;;;;;13.13;42.60;68306.56;4938821;28;46186;-84
2023/04/05 09:32:13;;;;;;;;;14.33;14.00;;;;;13.09;41.53;68249.34;4938865;28;45358;-84
2023/04/05 09:34:41;;;;;;;;;14.33;12.67;;;;;13.29;41.96;68270.34;4938624;28;45408;-85
2023/04/05 09:37:20;;;;;;;;;10.00;10.00;;;;;13.42;42.00;68327.66;4939333;28;45334;-85
2023/04/05 09:39:48;;;;;;;;;11.67;11.67;;;;;13.42;41.63;68295.78;4938768;28;46691;-84
2023/04/05 09:42:21;;;;;;;;;13.00;10.67;;;;;13.34;41.71;68261.81;4938813;28;45447;-85
2023/04/05 09:44:56;;;;;;;;;7.33;7.33;;;;;13.66;41.89;68301.75;4939199;28;45219;-85
2023/04/05 09:47:30;;;;;;;;;15.00;15.00;;;;;14.05;41.09;68342.00;4939110;28;45340;-85
2023/04/05 09:50:00;;;;;;;;;12.67;11.00;;;;;14.24;41.04;68509.59;4940426;28;46652;-85
2023/04/05 09:52:27;;;;;;;;;13.50;10.00;;;;;14.54;41.14;68424.88;4942155;28;45384;-85
2023/04/05 09:54:55;;;;;;;;;8.33;8.33;;;;;14.71;41.29;68405.09;4942378;28;45480;-85
2023/04/05 09:57:22;;;;;;;;;13.33;9.00;;;;;15.25;41.12;68483.28;4942322;28;45523;-85
2023/04/05 09:59:48;;;;;;;;;14.00;10.67;;;;;15.24;39.85;68380.28;4941662;28;46277;-85
2023/04/05 10:02:14;;;;;;;;;13.67;10.33;;;;;15.87;38.90;68573.69;4941566;28;45440;-85
2023/04/05 10:05:04;;;;;;;;;13.00;10.00;;;;;16.47;38.18;68632.44;4941909;28;45464;-85
2023/04/05 10:07:29;;;;;;;;;14.33;14.33;;;;;16.71;37.52;68649.63;5762777;23;46609;-88
2023/04/05 10:09:55;;;;;;;;;14.67;10.67;;;;;16.90;36.19;68697.72;4941439;28;45347;-87
2023/04/05 10:12:27;;;;;;;;;11.67;10.33;;;;;17.47;36.05;68737.53;4941773;28;45232;-87
2023/04/05 10:14:54;;;;;;;;;9.00;9.00;;;;;17.68;36.63;68805.25;4942104;28;46085;-87
2023/04/05 10:17:23;;;;;;;;;10.00;10.00;;;;;18.03;35.79;68843.00;4941947;28;45414;-88
2023/04/05 10:20:07;;;;;;;;;9.33;9.33;;;;;18.29;35.40;68870.66;4941394;28;46182;-88
2023/04/05 10:22:39;;;;;;;;;9.00;8.67;;;;;18.56;35.33;68901.56;4941454;28;45310;-87
2023/04/05 10:25:22;;;;;;;;;11.67;11.33;;;;;18.80;34.66;68910.78;4940246;28;45353;-88
2023/04/05 10:27:58;;;;;;;;;2.67;2.67;;;;;19.17;34.62;68975.66;4942114;28;45456;-88
2023/04/05 10:30:32;;;;;;;;;11.00;10.67;;;;;19.47;33.35;69028.34;4941014;28;45587;-87
2023/04/05 10:33:22;;;;;;;;;8.33;6.67;;;;;19.77;33.28;69084.97;4941356;28;45385;-87
2023/04/05 10:36:01;;;;;;;;;7.33;7.33;;;;;20.02;33.89;69106.69;4941534;28;45466;-88
2023/04/05 10:38:28;;;;;;;;;12.33;11.33;;;;;20.44;32.79;69174.34;4941648;28;45336;-88
2023/04/05 10:41:00;;;;;;;;;13.67;11.33;;;;;20.77;31.99;69150.13;4941261;28;45373;-88
2023/04/05 10:43:27;;;;;;;;;11.67;11.00;;;;;20.98;31.63;69255.81;4941254;28;45439;-88
2023/04/05 10:45:56;;;;;;;;;8.67;7.33;;;;;21.58;31.35;69206.63;4941450;28;45492;-88
2023/04/05 10:48:29;;;;;;;;;9.67;8.33;;;;;22.01;30.37;69264.75;4941641;28;45466;-88
2023/04/05 10:50:56;;;;;;;;;7.00;7.00;;;;;22.37;29.83;69280.16;4941110;28;46246;-88
2023/04/05 10:53:23;;;;;;;;;9.00;7.67;;;;;22.83;27.79;69273.88;4941016;28;45366;-88
2023/04/05 10:55:49;;;;;;;;;8.00;6.67;;;;;23.09;27.53;69360.97;4941280;28;45289;-88
2023/04/05 10:58:15;;;;;;;;;11.33;10.00;;;;;23.46;28.14;69341.81;4940302;28;45297;-88
2023/04/05 11:00:41;;;;;;;;;8.33;8.33;;;;;23.85;27.25;69347.22;4938646;28;45609;-88
2023/04/05 11:03:07;;;;;;;;;9.00;7.00;;;;;24.26;26.58;69367.91;4939498;28;45780;-88
2023/04/05 11:05:36;;;;;;;;;9.00;8.00;;;;;24.59;27.10;69376.31;4941288;28;45270;-88
2023/04/05 11:08:11;;;;;;;;;8.00;8.00;;;;;24.65;25.33;69302.31;4941015;28;45449;-88
2023/04/05 11:10:38;;;;;;;;;7.67;6.00;;;;;24.87;26.03;69389.56;4940593;28;46571;-88
2023/04/05 11:13:05;;;;;;;;;10.00;7.33;;;;;25.09;26.17;69386.00;4940838;28;45369;-88
2023/04/05 11:15:33;;;;;;;;;7.33;6.00;;;;;25.30;25.27;69377.38;4941148;28;45408;-88
2023/04/05 11:18:16;;;;;;;;;7.33;7.33;;;;;25.56;25.31;69407.75;4939369;28;45415;-88
2023/04/05 11:20:50;;;;;;;;;3.00;3.00;;;;;25.74;24.88;69417.75;4940983;28;46416;-89
2023/04/05 11:23:17;;;;;;;;;9.00;8.00;;;;;25.79;24.28;69383.66;4940773;28;45360;-88
2023/04/05 11:25:49;;;;;;;;;9.00;8.00;;;;;25.91;24.78;69389.25;4941046;28;45346;-89
2023/04/05 11:28:40;;;;;;;;;6.33;6.00;;;;;25.90;22.64;69310.06;4941074;28;45388;-88
2023/04/05 11:31:17;;;;;;;;;7.00;7.00;;;;;26.16;23.63;69366.91;4939045;28;47050;-88
2023/04/05 11:33:46;;;;;;;;;5.00;5.00;;;;;26.26;24.07;69351.09;4939329;28;45381;-88
2023/04/05 11:36:12;;;;;;;;;8.67;7.00;;;;;26.33;23.34;69389.84;4940641;28;45435;-88
2023/04/05 11:38:39;;;;;;;;;10.33;10.00;;;;;26.38;22.78;69359.38;4940994;28;45281;-88
2023/04/05 11:41:10;;;;;;;;;7.67;7.00;;;;;26.38;21.88;69343.69;4940419;28;45635;-88
2023/04/05 11:43:37;;;;;;;;;10.67;10.00;;;;;26.37;21.99;69350.66;4940634;28;45346;-88
2023/04/05 11:46:04;;;;;;;;;7.00;5.00;;;;;26.44;22.47;69337.28;4940263;28;45461;-88
2023/04/05 11:48:29;;;;;;;;;10.33;8.67;;;;;26.51;21.44;69317.88;4940697;28;45310;-89
2023/04/05 11:50:55;;;;;;;;;9.00;9.00;;;;;26.63;22.43;69345.72;4939923;28;45334;-88
2023/04/05 11:53:21;;;;;;;;;7.33;7.33;;;;;26.49;21.28;69307.38;4939140;28;45447;-88
2023/04/05 11:55:50;;;;;;;;;5.33;5.33;;;;;26.82;21.54;69310.75;4940560;28;45861;-89
2023/04/05 11:58:20;;;;;;;;;8.00;5.33;;;;;26.93;20.70;69323.81;4940729;28;45453;-88
2023/04/05 12:00:55;;;;;;;;;6.33;5.67;;;;;27.07;21.37;69304.56;4939571;28;47735;-88
2023/04/05 12:03:21;;;;;;;;;8.67;7.33;;;;;27.02;20.46;69347.50;4940064;28;45388;-89
2023/04/05 12:05:48;;;;;;;;;7.00;5.00;;;;;27.30;20.82;69312.31;4940203;28;45318;-89
2023/04/05 12:08:14;;;;;;;;;9.33;5.33;;;;;27.39;20.50;69294.66;4940422;28;45336;-89
2023/04/05 12:10:40;;;;;;;;;12.33;7.00;;;;;27.45;20.53;69345.84;4939833;28;45437;-89
2023/04/05 12:13:05;;;;;;;;;8.00;8.00;;;;;27.46;19.71;69330.72;4939678;28;45483;-88
2023/04/05 12:15:35;;;;;;;;;9.00;8.00;;;;;27.63;20.13;69312.31;4940007;28;45357;-88
2023/04/05 12:18:00;;;;;;;;;5.33;5.33;;;;;27.72;19.41;69380.06;4940293;28;45350;-88
2023/04/05 12:20:25;;;;;;;;;6.67;6.67;;;;;27.52;20.14;69285.66;4940081;28;46456;-89
2023/04/05 12:22:52;;;;;;;;;6.00;6.00;;;;;27.89;19.72;69312.72;4939999;28;45423;-89
2023/04/05 12:25:19;;;;;;;;;6.67;6.67;;;;;27.86;19.81;69268.38;4940096;28;45495;-89
2023/04/05 12:27:45;;;;;;;;;7.67;6.00;;;;;28.20;20.21;69345.63;4940478;28;45451;-88
2023/04/05 12:30:15;;;;;;;;;8.00;8.00;;;;;28.17;19.88;69293.13;4939629;28;46251;-89
2023/04/05 12:32:42;;;;;;;;;8.00;8.00;;;;;28.48;19.43;69285.81;4939624;28;45340;-89
2023/04/05 12:35:18;;;;;;;;;6.33;6.33;;;;;28.61;19.43;69320.28;4939859;28;45527;-89
2023/04/05 12:37:44;;;;;;;;;4.33;4.33;;;;;28.49;18.99;69234.69;4940101;28;45448;-88
2023/04/05 12:40:10;;;;;;;;;8.33;6.67;;;;;28.91;18.76;69329.59;4937888;28;47590;-89
2023/04/05 12:42:38;;;;;;;;;10.00;10.00;;;;;28.97;18.99;69312.81;4939313;28;45369;-89
2023/04/05 12:45:12;;;;;;;;;6.00;6.00;;;;;29.20;19.08;69306.84;4939718;28;45452;-88
2023/04/05 12:47:57;;;;;;;;;8.33;7.00;;;;;29.30;18.48;69252.72;4939991;28;45354;-89
2023/04/05 12:50:30;;;;;;;;;6.67;6.67;;;;;29.56;18.58;69244.19;4936657;28;46489;-90
2023/04/05 12:53:00;;;;;;;;;9.00;9.00;;;;;29.59;17.92;69281.03;4933028;28;45910;-89
2023/04/05 12:55:28;;;;;;;;;4.67;4.67;;;;;29.79;18.04;69240.91;4937991;28;45625;-89
2023/04/05 12:57:58;;;;;;;;;7.67;5.33;;;;;29.65;18.38;69184.00;4937290;28;45600;-89
2023/04/05 13:00:25;;;;;;;;;5.67;5.67;;;;;29.88;17.94;69238.50;4936465;28;47893;-89
2023/04/05 13:02:52;;;;;;;;;8.00;8.00;;;;;30.02;16.89;69238.13;4937228;28;45538;-89
2023/04/05 13:05:29;;;;;;;;;4.33;4.33;;;;;30.07;16.89;69289.84;4938637;28;45476;-89
2023/04/05 13:07:55;;;;;;;;;7.00;5.67;;;;;30.14;17.27;69270.84;4938463;28;45380;-89
2023/04/05 13:10:22;;;;;;;;;4.00;4.00;;;;;30.19;17.64;69254.34;4927119;28;46194;-88
2023/04/05 13:12:48;;;;;;;;;5.33;5.33;;;;;30.23;16.97;69270.00;4928181;28;45453;-89
2023/04/05 13:15:14;;;;;;;;;8.00;6.00;;;;;30.22;17.45;69269.41;4929569;28;45584;-89
2023/04/05 13:17:41;;;;;;;;;6.67;6.67;;;;;30.07;17.21;69317.13;4927076;28;45479;-89
2023/04/05 13:20:07;;;;;;;;;5.67;5.67;;;;;30.16;17.44;69291.72;4936542;28;47444;-89
2023/04/05 13:22:33;;;;;;;;;5.00;5.00;;;;;30.11;17.25;69321.25;4930376;28;45557;-94
2023/04/05 13:24:58;;;;;;;;;8.00;6.00;;;;;30.00;17.16;69290.31;4935962;28;45463;-93
2023/04/05 13:27:24;;;;;;;;;8.67;5.33;;;;;29.86;16.98;69320.09;4942859;28;45436;-92
2023/04/05 13:29:49;;;;;;;;;6.00;6.00;;;;;29.62;16.79;69333.69;4935803;28;45371;-95
2023/04/05 13:32:15;;;;;;;;;6.33;6.33;;;;;29.42;16.89;69362.31;4939712;28;45407;-94
2023/04/05 13:34:40;;;;;;;;;3.00;3.00;;;;;28.91;17.19;69357.41;4939761;28;45537;-94
2023/04/05 13:37:05;;;;;;;;;6.33;6.33;;;;;28.72;17.55;69359.94;4941697;28;45408;-96
2023/04/05 13:39:30;;;;;;;;;6.33;6.33;;;;;28.42;17.96;69417.41;4950170;28;45408;-96
2023/04/05 13:41:56;;;;;;;;;8.33;6.00;;;;;28.12;17.64;69409.53;4928267;28;45449;-93
2023/04/05 13:44:22;;;;;;;;;6.00;6.00;;;;;27.83;18.02;69383.78;4935465;28;45269;-95
2023/04/05 13:46:48;;;;;;;;;8.33;8.33;;;;;27.30;18.10;69325.91;4933816;28;45601;-96
2023/04/05 13:49:13;;;;;;;;;7.33;5.33;;;;;27.24;18.09;69408.38;4934085;28;47175;-93
2023/04/05 13:51:40;;;;;;;;;9.33;7.00;;;;;26.46;18.61;69328.81;4937099;28;45472;-94
2023/04/05 13:54:10;;;;;;;;;4.67;4.33;;;;;26.33;19.13;69360.03;4940362;28;45262;-96
2023/04/05 13:56:41;;;;;;;;;9.33;7.00;;;;;26.16;19.21;69309.41;4943228;28;45433;-96
2023/04/05 13:59:07;;;;;;;;;13.00;10.33;;;;;26.14;18.88;69363.94;4942260;28;47309;-95
2023/04/05 14:01:38;;;;;;;;;7.67;7.67;;;;;25.37;18.98;69324.03;4941166;28;45990;-96
2023/04/05 14:04:04;;;;;;;;;6.33;6.33;;;;;24.69;19.14;69217.84;4946196;28;45383;-96
2023/04/05 14:06:29;;;;;;;;;7.33;7.33;;;;;25.17;19.83;69286.66;4936044;28;46775;-91
2023/04/05 14:08:55;;;;;;;;;7.67;7.00;;;;;24.79;19.78;69234.53;4923348;28;47265;-92
2023/04/05 14:11:21;;;;;;;;;6.00;5.33;;;;;24.37;19.64;69288.50;4936940;28;46976;-94
2023/04/05 14:13:47;;;;;;;;;8.00;6.67;;;;;24.12;19.77;69218.81;4958631;28;45362;-92
2023/04/05 14:16:13;;;;;;;;;9.33;8.00;;;;;24.13;19.99;69317.88;4936396;28;45364;-95
2023/04/05 14:19:39;;;;;;;;;10.33;8.67;;;;;23.28;20.09;69219.00;4940798;28;46771;-96
2023/04/05 14:22:05;;;;;;;;;9.00;7.33;;;;;23.69;20.36;69150.50;4886229;29;45558;-92
2023/04/05 14:24:30;;;;;;;;;10.00;8.33;;;;;24.20;20.67;69245.13;4889383;29;45603;-93
2023/04/05 14:26:56;;;;;;;;;6.33;5.33;;;;;23.56;20.55;69143.19;4888525;29;45579;-91
2023/04/05 14:30:10;;;;;;;;;6.67;5.33;;;;;23.07;20.96;69251.25;4877342;29;48122;-92
2023/04/05 14:32:35;;;;;;;;;5.67;4.00;;;;;23.85;20.82;69214.28;4807276;29;45609;-94
2023/04/05 14:35:01;;;;;;;;;8.33;7.33;;;;;23.15;21.07;69214.31;4812151;29;45579;-93
2023/04/05 14:37:26;;;;;;;;;6.00;4.33;;;;;23.07;20.33;69250.69;4816760;29;45514;-94
2023/04/05 14:39:52;;;;;;;;;6.00;6.00;;;;;23.41;20.48;69231.19;4819837;29;48009;-94
2023/04/05 14:42:17;;;;;;;;;6.33;6.33;;;;;23.16;20.92;69156.75;4805899;29;45421;-92
2023/04/05 14:44:42;;;;;;;;;6.33;4.33;;;;;22.93;20.91;69170.44;4825445;29;45915;-93
2023/04/05 14:47:14;;;;;;;;;7.33;7.33;;;;;23.47;20.79;69222.13;4832183;23;45340;-91
2023/04/05 14:49:40;;;;;;;;;7.33;6.33;;;;;22.52;21.12;69087.22;4917689;28;47914;-91
2023/04/05 14:52:05;;;;;;;;;7.00;7.00;;;;;22.12;21.35;69009.13;4919935;28;45520;-91
2023/04/05 14:59:36;;;;;;;;;5.67;5.67;;;;;22.80;21.02;69297.88;5106096;23;74377;-94
2023/04/05 15:02:01;;;;;;;;;6.67;6.00;;;;;22.55;21.31;69317.22;4945177;28;45331;-95
2023/04/05 15:04:27;;;;;;;;;2.67;2.33;;;;;22.80;20.78;69168.44;4941776;28;45361;-94
2023/04/05 15:06:52;;;;;;;;;7.33;5.67;;;;;22.61;20.09;69191.66;4942502;28;45421;-92
2023/04/05 15:09:18;;;;;;;;;5.67;3.67;;;;;22.30;21.21;69139.78;4940587;28;45488;-94
2023/04/05 15:11:43;;;;;;;;;9.33;8.67;;;;;22.13;20.92;69235.97;4941127;28;45389;-90
2023/04/05 15:14:09;;;;;;;;;4.67;4.67;;;;;22.29;21.42;69292.78;4942976;28;45479;-90
2023/04/05 15:16:34;;;;;;;;;4.00;4.00;;;;;21.85;21.08;69095.50;4938014;28;45503;-91
2023/04/05 15:19:00;;;;;;;;;6.33;6.00;;;;;21.81;20.95;69093.44;4941325;28;46279;-91
2023/04/05 15:21:25;;;;;;;;;7.00;6.00;;;;;22.11;21.16;69098.91;4939405;28;45373;-91
2023/04/05 15:23:51;;;;;;;;;6.00;6.00;;;;;22.05;20.54;69103.13;4937565;28;45374;-92
2023/04/05 15:26:16;;;;;;;;;4.67;4.67;;;;;21.85;20.71;69090.72;4942976;28;45353;-91
2023/04/05 15:28:41;;;;;;;;;7.00;5.00;;;;;21.90;21.05;69134.34;4941595;28;46249;-92
2023/04/05 15:31:07;;;;;;;;;5.00;5.00;;;;;21.96;21.31;69119.38;4942945;28;45338;-92
2023/04/05 15:33:33;;;;;;;;;4.67;4.67;;;;;21.92;21.70;69122.69;4941548;28;45380;-90
2023/04/05 15:35:58;;;;;;;;;6.00;5.67;;;;;21.43;21.45;69039.25;4941952;28;45488;-92
2023/04/05 15:38:23;;;;;;;;;5.67;4.67;;;;;21.66;21.42;69117.16;4954610;28;47407;-93
2023/04/05 15:40:51;;;;;;;;;7.33;6.33;;;;;21.80;21.00;69055.16;4940752;28;45526;-92
2023/04/05 15:43:17;;;;;;;;;4.00;4.00;;;;;21.74;21.05;69128.19;4940354;28;45528;-91
2023/04/05 15:45:43;;;;;;;;;7.00;5.33;;;;;21.65;21.23;69056.16;4943035;28;45384;-92
2023/04/05 15:48:09;;;;;;;;;3.00;3.00;;;;;21.07;21.43;68986.88;4932602;28;45543;-92
2023/04/05 15:50:34;;;;;;;;;4.67;2.67;;;;;20.46;21.80;68971.97;4945321;28;45318;-92
2023/04/05 15:53:00;;;;;;;;;4.00;4.00;;;;;21.02;21.36;68988.41;4945132;28;45399;-92
2023/04/05 15:55:25;;;;;;;;;4.00;4.00;;;;;20.82;21.22;69033.03;4943454;28;45571;-90
2023/04/05 15:57:53;;;;;;;;;9.33;6.33;;;;;21.24;21.22;69052.22;4938348;28;47296;-90
2023/04/05 16:00:20;;;;;;;;;3.00;2.00;;;;;20.73;21.83;68984.09;4937481;28;45486;-92
2023/04/05 16:02:46;;;;;;;;;5.00;4.00;;;;;21.02;21.72;69061.00;4955663;28;45318;-91
2023/04/05 16:05:11;;;;;;;;;4.33;3.00;;;;;21.08;21.49;69033.19;4939166;28;45303;-90
2023/04/05 16:07:37;;;;;;;;;5.33;4.00;;;;;20.98;21.99;69015.94;4939693;28;45487;-90
2023/04/05 16:10:03;;;;;;;;;5.00;3.00;;;;;20.75;21.73;68978.41;4942880;28;45452;-91
2023/04/05 16:12:29;;;;;;;;;2.00;2.00;;;;;20.54;21.71;68991.66;4941053;28;45390;-91
2023/04/05 16:14:54;;;;;;;;;3.00;3.00;;;;;20.76;22.04;69060.22;4939676;28;45269;-91
2023/04/05 16:17:19;;;;;;;;;4.00;4.00;;;;;20.56;21.92;68948.97;4941866;28;46114;-91
2023/04/05 16:19:45;;;;;;;;;3.00;3.00;;;;;20.16;22.07;68853.69;4940599;28;45801;-91
2023/04/05 16:22:10;;;;;;;;;4.33;2.00;;;;;20.45;21.89;68957.94;4940516;28;45433;-92
2023/04/05 16:24:37;;;;;;;;;4.00;4.00;;;;;20.50;22.20;68974.03;4941129;28;45369;-91
2023/04/05 16:27:02;;;;;;;;;5.67;3.33;;;;;19.93;22.23;68929.56;4940170;28;48433;-91
2023/04/05 16:29:28;;;;;;;;;2.00;2.00;;;;;20.38;21.82;68971.13;4940641;28;45469;-92
2023/04/05 16:31:53;;;;;;;;;3.00;3.00;;;;;20.23;22.09;68961.94;4941125;28;45480;-91
2023/04/05 16:34:19;;;;;;;;;3.33;3.33;;;;;20.43;22.04;68997.94;4941441;28;45492;-91